createdAt,value
2022-08-23T00:01:21.784Z,47.70
2022-08-23T00:03:53.681Z,47.80
2022-08-23T00:06:23.392Z,47.20
2022-08-23T00:08:53.113Z,46.70
2022-08-23T00:11:29.856Z,45.80
2022-08-23T00:14:00.106Z,46.90
2022-08-23T00:16:29.731Z,47.20
2022-08-23T00:18:57.945Z,47.50
2022-08-23T00:21:26.137Z,48.50
2022-08-23T00:23:54.135Z,48.40
2022-08-23T00:26:22.533Z,47.80
2022-08-23T00:28:51.076Z,48.00
2022-08-23T00:31:19.919Z,47.70
2022-08-23T00:33:49.240Z,47.00
2022-08-23T00:36:17.158Z,47.20
2022-08-23T00:38:45.064Z,47.20
2022-08-23T00:41:13.056Z,48.10
2022-08-23T00:44:00.575Z,47.10
2022-08-23T00:46:58.340Z,48.20
2022-08-23T00:49:29.075Z,49.00
2022-08-23T00:52:02.545Z,48.60
2022-08-23T00:54:33.184Z,46.00
2022-08-23T00:57:05.560Z,48.00
2022-08-23T00:59:33.742Z,47.50
2022-08-23T01:02:02.624Z,47.50
2022-08-23T01:04:38.482Z,48.20
2022-08-23T01:07:17.346Z,48.70
2022-08-23T01:09:48.327Z,48.40
2022-08-23T01:12:32.820Z,48.80
2022-08-23T01:15:03.805Z,50.10
2022-08-23T01:17:37.088Z,51.00
2022-08-23T01:20:10.583Z,50.00
2022-08-23T01:22:43.167Z,50.40
2022-08-23T01:25:16.827Z,50.30
2022-08-23T01:27:45.807Z,49.50
2022-08-23T01:30:16.986Z,48.50
2022-08-23T01:32:47.533Z,49.10
2022-08-23T01:35:16.827Z,49.40
2022-08-23T01:37:45.729Z,49.90
2022-08-23T01:40:16.158Z,48.80
2022-08-23T01:42:44.489Z,48.10
2022-08-23T01:45:14.641Z,48.90
2022-08-23T01:47:43.665Z,49.90
2022-08-23T01:50:13.110Z,50.00
2022-08-23T01:52:46.971Z,50.30
2022-08-23T01:55:17.575Z,50.80
2022-08-23T01:57:48.382Z,51.50
2022-08-23T02:00:17.662Z,52.10
2022-08-23T02:02:47.081Z,52.60
2022-08-23T02:05:18.928Z,51.40
2022-08-23T02:07:47.442Z,51.00
2022-08-23T02:10:17.020Z,51.00
2022-08-23T02:12:45.303Z,52.30
2022-08-23T02:15:13.682Z,51.70
2022-08-23T02:17:41.828Z,52.90
2022-08-23T02:20:10.665Z,53.30
2022-08-23T02:22:39.577Z,53.10
2022-08-23T02:25:08.774Z,51.20
2022-08-23T02:27:38.369Z,50.30
2022-08-23T02:30:12.895Z,49.20
2022-08-23T02:32:42.199Z,51.60
2022-08-23T02:35:10.807Z,52.50
2022-08-23T02:37:39.097Z,52.90
2022-08-23T02:40:08.430Z,52.30
2022-08-23T02:42:37.885Z,50.90
2022-08-23T02:45:08.414Z,51.30
2022-08-23T02:47:37.318Z,51.40
2022-08-23T02:50:06.523Z,51.80
2022-08-23T02:52:34.698Z,52.60
2022-08-23T02:55:02.686Z,52.60
2022-08-23T02:57:31.450Z,52.90
2022-08-23T03:00:01.056Z,52.90
2022-08-23T03:02:29.490Z,52.70
2022-08-23T03:04:57.512Z,52.90
2022-08-23T03:07:25.679Z,53.70
2022-08-23T03:09:53.625Z,53.30
2022-08-23T03:12:21.601Z,52.10
2022-08-23T03:14:51.247Z,51.00
2022-08-23T03:17:22.048Z,51.40
2022-08-23T03:19:50.323Z,53.10
2022-08-23T03:22:18.466Z,53.70
2022-08-23T03:24:46.666Z,53.70
2022-08-23T03:27:14.755Z,53.70
2022-08-23T03:29:42.844Z,53.60
2022-08-23T03:32:11.457Z,51.50
2022-08-23T03:34:44.822Z,53.40
2022-08-23T03:37:12.776Z,53.20
2022-08-23T03:39:40.873Z,52.40
2022-08-23T03:42:08.993Z,53.40
2022-08-23T03:44:37.065Z,55.20
2022-08-23T03:47:06.268Z,54.90
2022-08-23T03:49:34.288Z,55.00
2022-08-23T03:52:04.490Z,53.50
2022-08-23T03:54:32.523Z,54.40
2022-08-23T03:57:03.008Z,55.30
2022-08-23T03:59:32.943Z,55.60
2022-08-23T04:02:00.959Z,53.50
2022-08-23T04:04:29.091Z,52.00
2022-08-23T04:06:57.305Z,52.10
2022-08-23T04:09:26.596Z,51.70
2022-08-23T04:11:54.600Z,52.30
2022-08-23T04:14:22.719Z,52.80
2022-08-23T04:16:50.620Z,52.50
2022-08-23T04:19:18.677Z,53.00
2022-08-23T04:21:49.497Z,53.60
2022-08-23T04:24:18.980Z,54.70
2022-08-23T04:26:49.520Z,54.90
2022-08-23T04:29:33.618Z,55.30
2022-08-23T04:32:02.820Z,56.20
2022-08-23T04:34:34.794Z,56.70
2022-08-23T04:37:03.047Z,56.90
2022-08-23T04:39:51.885Z,56.90
2022-08-23T04:42:23.329Z,57.20
2022-08-23T04:44:51.342Z,56.40
2022-08-23T04:47:20.415Z,54.70
2022-08-23T04:49:48.456Z,53.80
2022-08-23T04:52:19.387Z,52.80
2022-08-23T04:54:47.804Z,53.20
2022-08-23T04:57:16.476Z,53.70
2022-08-23T04:59:45.769Z,53.90
2022-08-23T05:02:14.484Z,53.40
2022-08-23T05:04:42.483Z,53.60
2022-08-23T05:07:10.951Z,53.80
2022-08-23T05:09:38.877Z,54.00
2022-08-23T05:12:07.142Z,53.20
2022-08-23T05:14:35.107Z,53.20
2022-08-23T05:17:04.773Z,52.30
2022-08-23T05:19:32.709Z,51.50
2022-08-23T05:22:00.650Z,50.90
2022-08-23T05:24:28.646Z,50.20
2022-08-23T05:26:56.658Z,50.00
2022-08-23T05:29:24.683Z,49.30
2022-08-23T05:31:57.111Z,49.80
2022-08-23T05:34:26.580Z,48.90
2022-08-23T05:36:55.875Z,48.40
2022-08-23T05:39:32.822Z,47.60
2022-08-23T05:42:05.447Z,47.80
2022-08-23T05:44:36.441Z,46.50
2022-08-23T05:47:10.534Z,46.00
2022-08-23T05:49:41.181Z,46.20
2022-08-23T05:52:15.001Z,46.10
2022-08-23T05:54:43.052Z,46.00
2022-08-23T05:57:11.563Z,46.00
2022-08-23T05:59:41.762Z,45.20
2022-08-23T06:02:09.975Z,44.80
2022-08-23T06:04:38.185Z,44.00
2022-08-23T06:07:09.781Z,44.10
2022-08-23T06:09:37.964Z,43.90
2022-08-23T06:12:06.223Z,43.40
2022-08-23T06:14:34.194Z,43.20
2022-08-23T06:17:02.410Z,42.20
2022-08-23T06:19:30.363Z,42.10
2022-08-23T06:21:58.291Z,41.90
2022-08-23T06:24:27.664Z,41.30
2022-08-23T06:26:55.637Z,41.30
2022-08-23T06:29:23.738Z,40.40
2022-08-23T06:31:53.292Z,40.30
2022-08-23T06:34:23.769Z,38.20
2022-08-23T06:36:55.195Z,38.00
2022-08-23T06:39:25.495Z,37.40
2022-08-23T06:41:58.442Z,39.00
2022-08-23T06:44:27.322Z,36.20
2022-08-23T06:46:57.436Z,36.50
2022-08-23T06:49:27.660Z,35.80
2022-08-23T06:51:59.913Z,35.70
2022-08-23T06:54:31.367Z,36.10
2022-08-23T06:57:01.392Z,35.00
2022-08-23T06:59:29.915Z,35.70
2022-08-23T07:01:59.597Z,34.90
2022-08-23T07:04:29.895Z,33.70
2022-08-23T07:06:58.859Z,33.80
2022-08-23T07:09:27.360Z,33.80
2022-08-23T07:11:55.874Z,33.20
2022-08-23T07:14:25.871Z,34.00
2022-08-23T07:16:56.221Z,34.40
2022-08-23T07:19:28.903Z,33.00
2022-08-23T07:21:57.956Z,31.70
2022-08-23T07:24:30.635Z,32.70
2022-08-23T07:27:04.052Z,32.00
2022-08-23T07:29:33.487Z,31.60
2022-08-23T07:32:01.513Z,32.00
2022-08-23T07:34:30.025Z,30.40
2022-08-23T07:36:57.964Z,30.20
2022-08-23T07:39:26.445Z,29.60
2022-08-23T07:41:54.721Z,29.50
2022-08-23T07:44:26.421Z,29.50
2022-08-23T07:46:57.027Z,29.10
2022-08-23T07:49:29.378Z,29.30
2022-08-23T07:51:59.306Z,29.00
2022-08-23T07:54:28.421Z,29.00
2022-08-23T07:56:56.400Z,29.00
2022-08-23T07:59:24.436Z,28.00
2022-08-23T08:01:52.484Z,28.40
2022-08-23T08:04:21.842Z,27.30
2022-08-23T08:07:10.478Z,27.30
2022-08-23T08:09:40.422Z,27.40
2022-08-23T08:12:08.947Z,27.40
2022-08-23T08:14:37.358Z,27.00
2022-08-23T08:17:06.935Z,26.50
2022-08-23T08:19:36.195Z,26.50
2022-08-23T08:22:04.362Z,25.90
2022-08-23T08:24:32.325Z,26.40
2022-08-23T08:27:00.567Z,26.10
2022-08-23T08:29:29.417Z,24.70
2022-08-23T08:31:57.539Z,25.70
2022-08-23T08:34:25.698Z,25.40
2022-08-23T08:36:58.488Z,24.80
2022-08-23T08:39:30.313Z,24.70
2022-08-23T08:42:20.603Z,23.90
2022-08-23T08:44:52.320Z,24.70
2022-08-23T08:47:24.061Z,24.40
2022-08-23T08:49:58.848Z,24.10
2022-08-23T08:52:32.163Z,24.30
2022-08-23T08:55:06.665Z,24.00
2022-08-23T08:57:41.105Z,22.60
2022-08-23T09:00:13.365Z,23.20
2022-08-23T09:02:41.948Z,23.80
2022-08-23T09:05:14.608Z,22.70
2022-08-23T09:07:56.230Z,23.80
2022-08-23T09:10:44.361Z,23.00
2022-08-23T09:13:27.903Z,24.10
2022-08-23T09:16:04.048Z,23.40
2022-08-23T09:18:35.313Z,22.70
2022-08-23T09:21:07.788Z,22.50
2022-08-23T09:23:41.364Z,22.30
2022-08-23T09:26:22.089Z,22.20
2022-08-23T09:28:52.176Z,22.30
2022-08-23T09:31:39.129Z,21.90
2022-08-23T09:34:07.847Z,23.20
2022-08-23T09:36:38.346Z,21.00
2022-08-23T09:39:09.930Z,21.90
2022-08-23T09:41:39.933Z,20.90
2022-08-23T09:44:13.330Z,22.00
2022-08-23T09:46:43.594Z,22.00
2022-08-23T09:49:25.977Z,21.50
2022-08-23T09:51:56.857Z,21.00
2022-08-23T09:54:31.091Z,21.40
2022-08-23T09:57:01.921Z,20.40
2022-08-23T09:59:39.156Z,21.40
2022-08-23T10:02:16.601Z,21.00
2022-08-23T10:04:47.903Z,20.80
2022-08-23T10:07:27.155Z,20.50
2022-08-23T10:10:15.974Z,19.90
2022-08-23T10:12:43.925Z,19.90
2022-08-23T10:15:12.244Z,20.30
2022-08-23T10:17:50.949Z,19.60
2022-08-23T10:20:32.490Z,19.20
2022-08-23T10:23:13.633Z,19.80
2022-08-23T10:25:48.291Z,19.10
2022-08-23T10:28:40.366Z,18.90
2022-08-23T10:31:15.464Z,19.60
2022-08-23T10:33:50.039Z,18.40
2022-08-23T10:36:23.950Z,20.30
2022-08-23T10:38:57.796Z,19.40
2022-08-23T10:41:44.456Z,18.20
2022-08-23T10:44:26.575Z,18.90
2022-08-23T10:47:06.117Z,18.10
2022-08-23T10:49:37.015Z,18.20
2022-08-23T10:52:08.779Z,17.10
2022-08-23T10:54:48.850Z,18.20
2022-08-23T10:57:21.734Z,18.30
2022-08-23T10:59:53.609Z,17.70
2022-08-23T11:02:29.783Z,18.50
2022-08-23T11:05:05.725Z,17.50
2022-08-23T11:07:36.902Z,17.50
2022-08-23T11:10:17.286Z,17.30
2022-08-23T11:12:58.352Z,18.10
2022-08-23T11:15:38.358Z,17.10
2022-08-23T11:18:33.564Z,17.60
2022-08-23T11:21:06.493Z,17.60
2022-08-23T11:23:47.801Z,17.60
2022-08-23T11:27:06.378Z,19.20
2022-08-23T11:29:39.392Z,17.70
2022-08-23T11:32:29.924Z,18.10
2022-08-23T11:35:05.676Z,17.90
2022-08-23T11:38:03.833Z,18.80
2022-08-23T11:41:01.016Z,16.20
2022-08-23T11:43:34.447Z,17.40
2022-08-23T11:46:34.597Z,17.20
2022-08-23T11:49:44.073Z,16.90
2022-08-23T11:52:23.065Z,16.10
2022-08-23T11:55:24.675Z,15.70
2022-08-23T11:58:15.542Z,15.30
2022-08-23T12:00:57.554Z,15.70
2022-08-23T12:03:34.026Z,17.20
2022-08-23T12:06:12.688Z,17.50
2022-08-23T12:08:54.769Z,16.50
2022-08-23T12:11:24.508Z,17.80
2022-08-23T12:13:59.827Z,17.00
2022-08-23T12:16:49.582Z,16.40
2022-08-23T12:19:31.432Z,17.40
2022-08-23T12:22:06.359Z,16.30
2022-08-23T12:24:44.474Z,16.10
2022-08-23T12:27:26.615Z,15.40
2022-08-23T12:30:00.334Z,16.00
2022-08-23T12:32:38.747Z,15.50
2022-08-23T12:35:33.604Z,15.30
2022-08-23T12:38:07.576Z,16.10
2022-08-23T12:40:42.069Z,16.10
2022-08-23T12:43:19.826Z,16.10
2022-08-23T12:45:53.320Z,16.30
2022-08-23T12:48:25.075Z,16.80
2022-08-23T12:50:59.945Z,17.10
2022-08-23T12:53:30.742Z,16.50
2022-08-23T12:56:03.258Z,16.40
2022-08-23T12:58:33.885Z,16.00
2022-08-23T13:01:04.904Z,15.50
2022-08-23T13:03:37.144Z,15.50
2022-08-23T13:06:11.833Z,15.40
2022-08-23T13:08:50.993Z,15.90
2022-08-23T13:11:21.822Z,14.90
2022-08-23T13:13:50.234Z,15.20
2022-08-23T13:16:32.444Z,15.90
2022-08-23T13:19:16.600Z,16.00
2022-08-23T13:21:46.365Z,16.20
2022-08-23T13:24:38.721Z,17.30
2022-08-23T13:27:35.354Z,15.80
2022-08-23T13:30:24.334Z,16.80
2022-08-23T13:33:13.932Z,16.30
2022-08-23T13:35:44.692Z,16.70
2022-08-23T13:38:24.580Z,17.50
2022-08-23T13:41:04.463Z,17.80
2022-08-23T13:43:36.894Z,17.70
2022-08-23T13:46:15.593Z,17.30
2022-08-23T13:48:49.119Z,17.00
2022-08-23T13:51:37.034Z,17.00
2022-08-23T13:54:08.887Z,16.80
2022-08-23T13:56:39.073Z,15.50
2022-08-23T13:59:23.272Z,15.70
2022-08-23T14:01:55.209Z,15.40
2022-08-23T14:04:23.326Z,16.20
2022-08-23T14:06:51.356Z,16.60
2022-08-23T14:09:20.799Z,15.20
2022-08-23T14:11:55.474Z,15.60
2022-08-23T14:14:24.388Z,16.40
2022-08-23T14:16:54.345Z,16.10
2022-08-23T14:22:10.580Z,16.30
2022-08-23T14:24:40.706Z,16.20
2022-08-23T14:27:10.063Z,18.00
2022-08-23T14:29:38.335Z,18.20
2022-08-23T14:32:06.650Z,17.90
2022-08-23T14:34:34.627Z,17.90
2022-08-23T14:39:52.311Z,19.10
2022-08-23T14:42:23.085Z,18.40
2022-08-23T14:44:52.259Z,18.50
2022-08-23T14:47:20.248Z,18.60
2022-08-23T14:49:52.006Z,18.50
2022-08-23T14:52:22.245Z,18.50
2022-08-23T14:54:51.553Z,18.20
2022-08-23T14:57:19.610Z,18.00
2022-08-23T14:59:47.869Z,18.70
2022-08-23T15:02:24.253Z,18.30
2022-08-23T15:04:52.832Z,18.00
2022-08-23T15:07:21.047Z,18.40
2022-08-23T15:09:49.705Z,19.10
2022-08-23T15:15:12.514Z,20.00
2022-08-23T15:17:47.856Z,19.40
2022-08-23T15:20:16.483Z,20.20
2022-08-23T15:22:45.201Z,20.20
2022-08-23T15:25:25.835Z,20.20
2022-08-23T15:27:55.723Z,20.10
2022-08-23T15:30:25.179Z,20.00
2022-08-23T15:32:56.597Z,20.00
2022-08-23T15:35:38.209Z,20.10
2022-08-23T15:38:08.991Z,19.90
2022-08-23T15:40:37.058Z,20.30
2022-08-23T15:43:06.627Z,20.10
2022-08-23T15:45:35.042Z,20.30
2022-08-23T15:48:06.818Z,20.60
2022-08-23T15:50:35.971Z,20.80
2022-08-23T15:53:04.157Z,21.30
2022-08-23T15:55:33.817Z,21.40
2022-08-23T15:58:01.765Z,20.30
2022-08-23T16:00:31.948Z,21.40
2022-08-23T16:03:17.184Z,21.00
2022-08-23T16:05:50.936Z,20.70
2022-08-23T16:08:22.173Z,21.10
2022-08-23T16:10:50.360Z,21.30
2022-08-23T16:13:19.042Z,21.40
2022-08-23T16:15:48.367Z,21.80
2022-08-23T16:18:16.327Z,21.00
2022-08-23T16:20:44.898Z,20.50
2022-08-23T16:23:13.386Z,21.20
2022-08-23T16:25:42.145Z,21.60
2022-08-23T16:28:10.367Z,21.30
2022-08-23T16:30:38.377Z,21.20
2022-08-23T16:33:07.735Z,20.70
2022-08-23T16:35:35.758Z,21.10
2022-08-23T16:38:03.775Z,21.50
2022-08-23T16:40:31.757Z,21.50
2022-08-23T16:43:00.421Z,22.10
2022-08-23T16:45:28.580Z,21.50
2022-08-23T16:47:56.547Z,20.90
2022-08-23T16:50:26.077Z,20.90
2022-08-23T16:52:54.047Z,22.40
2022-08-23T16:55:22.457Z,21.90
2022-08-23T16:57:50.448Z,21.90
2022-08-23T17:00:19.002Z,21.80
2022-08-23T17:02:47.161Z,22.40
2022-08-23T17:05:17.276Z,22.30
2022-08-23T17:07:47.810Z,22.10
2022-08-23T17:10:17.800Z,22.10
2022-08-23T17:12:48.713Z,21.30
2022-08-23T17:15:20.197Z,22.40
2022-08-23T17:17:48.576Z,22.90
2022-08-23T17:20:18.261Z,21.60
2022-08-23T17:22:49.387Z,21.60
2022-08-23T17:25:18.356Z,22.60
2022-08-23T17:27:47.401Z,22.70
2022-08-23T17:30:18.365Z,23.00
2022-08-23T17:32:47.710Z,23.50
2022-08-23T17:35:22.828Z,23.20
2022-08-23T17:37:52.891Z,25.40
2022-08-23T17:40:24.373Z,26.10
2022-08-23T17:42:52.772Z,25.40
2022-08-23T17:45:20.842Z,25.90
2022-08-23T17:47:49.322Z,26.90
2022-08-23T17:50:19.286Z,26.80
2022-08-23T17:52:47.270Z,26.80
2022-08-23T17:55:18.473Z,27.60
2022-08-23T17:57:48.307Z,28.80
2022-08-23T18:00:19.152Z,28.60
2022-08-23T18:02:47.446Z,29.20
2022-08-23T18:05:15.809Z,28.00
2022-08-23T18:07:43.843Z,28.00
2022-08-23T18:10:13.185Z,28.10
2022-08-23T18:12:42.901Z,28.10
2022-08-23T18:15:12.394Z,27.90
2022-08-23T18:17:41.419Z,27.80
2022-08-23T18:20:11.547Z,27.80
2022-08-23T18:22:40.209Z,27.70
2022-08-23T18:25:10.177Z,27.80
2022-08-23T18:27:55.522Z,28.20
2022-08-23T18:30:25.077Z,28.40
2022-08-23T18:32:53.104Z,29.10
2022-08-23T18:35:21.277Z,29.30
2022-08-23T18:37:49.280Z,29.50
2022-08-23T18:40:17.265Z,29.40
2022-08-23T18:42:45.421Z,29.60
2022-08-23T18:45:14.666Z,29.30
2022-08-23T18:47:44.231Z,29.20
2022-08-23T18:50:13.683Z,29.60
2022-08-23T18:52:41.971Z,29.80
2022-08-23T18:55:10.715Z,30.00
2022-08-23T18:57:39.258Z,30.00
2022-08-23T19:00:10.624Z,29.70
2022-08-23T19:02:38.566Z,30.40
2022-08-23T19:05:09.076Z,30.40
2022-08-23T19:07:37.013Z,30.60
2022-08-23T19:10:05.388Z,30.80
2022-08-23T19:12:33.296Z,30.80
2022-08-23T19:15:01.300Z,30.50
2022-08-23T19:17:29.319Z,31.20
2022-08-23T19:20:00.053Z,31.20
2022-08-23T19:22:29.735Z,31.60
2022-08-23T19:24:57.679Z,31.80
2022-08-23T19:27:25.815Z,31.90
2022-08-23T19:29:53.825Z,31.90
2022-08-23T19:32:22.207Z,32.10
2022-08-23T19:34:51.403Z,32.10
2022-08-23T19:37:22.933Z,32.30
2022-08-23T19:39:52.992Z,32.00
2022-08-23T19:42:21.501Z,32.00
2022-08-23T19:44:49.614Z,31.90
2022-08-23T19:47:20.330Z,32.20
2022-08-23T19:49:50.355Z,32.40
2022-08-23T19:52:18.293Z,33.30
2022-08-23T19:54:46.222Z,33.60
2022-08-23T19:57:15.525Z,33.00
2022-08-23T19:59:43.979Z,32.70
2022-08-23T20:02:13.936Z,32.40
2022-08-23T20:04:41.946Z,32.60
2022-08-23T20:07:10.089Z,33.10
2022-08-23T20:09:38.179Z,33.30
2022-08-23T20:12:06.457Z,32.50
2022-08-23T20:14:36.357Z,33.00
2022-08-23T20:17:07.301Z,33.70
2022-08-23T20:19:36.183Z,34.00
2022-08-23T20:22:18.846Z,34.20
2022-08-23T20:24:52.137Z,34.40
2022-08-23T20:27:25.447Z,34.40
2022-08-23T20:30:01.271Z,33.90
2022-08-23T20:32:29.779Z,33.70
2022-08-23T20:34:58.408Z,33.30
2022-08-23T20:37:26.377Z,33.00
2022-08-23T20:39:54.417Z,32.90
2022-08-23T20:42:22.395Z,32.80
2022-08-23T20:44:50.426Z,33.20
2022-08-23T20:47:19.895Z,33.30
2022-08-23T20:49:48.311Z,33.70
2022-08-23T20:52:16.693Z,34.00
2022-08-23T20:54:44.908Z,34.20
2022-08-23T20:57:13.085Z,34.00
2022-08-23T20:59:44.667Z,35.30
2022-08-23T21:02:13.124Z,34.60
2022-08-23T21:04:42.481Z,34.50
2022-08-23T21:07:10.578Z,34.30
2022-08-23T21:09:39.321Z,34.40
2022-08-23T21:12:07.692Z,34.80
2022-08-23T21:14:37.108Z,34.80
2022-08-23T21:17:05.053Z,34.60
2022-08-23T21:19:32.990Z,34.40
2022-08-23T21:22:02.238Z,34.30
2022-08-23T21:24:30.352Z,34.80
2022-08-23T21:26:58.386Z,36.20
2022-08-23T21:29:26.333Z,36.30
2022-08-23T21:31:55.003Z,36.80
2022-08-23T21:34:23.274Z,36.90
2022-08-23T21:36:52.320Z,37.40
2022-08-23T21:39:21.625Z,38.00
2022-08-23T21:41:49.668Z,38.00
2022-08-23T21:44:19.284Z,38.10
2022-08-23T21:46:48.775Z,38.20
2022-08-23T21:49:17.882Z,39.10
2022-08-23T21:51:47.099Z,39.20
2022-08-23T21:54:15.695Z,39.70
2022-08-23T21:56:45.797Z,40.20
2022-08-23T21:59:16.603Z,39.60
2022-08-23T22:01:44.980Z,39.60
2022-08-23T22:04:14.856Z,39.70
2022-08-23T22:06:44.878Z,40.00
2022-08-23T22:09:16.234Z,41.00
2022-08-23T22:11:48.044Z,41.20
2022-08-23T22:14:20.121Z,41.20
2022-08-23T22:16:49.382Z,41.50
2022-08-23T22:19:23.530Z,41.60
2022-08-23T22:21:52.374Z,41.90
2022-08-23T22:24:25.444Z,41.60
2022-08-23T22:26:56.242Z,42.10
2022-08-23T22:29:24.638Z,42.30
2022-08-23T22:31:52.719Z,42.60
2022-08-23T22:34:20.898Z,42.40
2022-08-23T22:36:52.297Z,41.70
2022-08-23T22:39:21.034Z,42.00
2022-08-23T22:41:48.994Z,42.50
2022-08-23T22:44:18.594Z,42.80
2022-08-23T22:46:46.972Z,43.30
2022-08-23T22:49:15.106Z,43.10
2022-08-23T22:51:43.771Z,43.60
2022-08-23T22:54:14.307Z,43.60
2022-08-23T22:56:44.527Z,43.70
2022-08-23T22:59:13.958Z,44.20
2022-08-23T23:01:47.693Z,44.30
2022-08-23T23:04:17.693Z,44.80
2022-08-23T23:06:46.068Z,44.40
2022-08-23T23:09:14.706Z,45.10
2022-08-23T23:11:43.908Z,45.30
2022-08-23T23:14:12.779Z,45.20
2022-08-23T23:16:41.764Z,45.20
2022-08-23T23:19:28.817Z,44.70
2022-08-23T23:21:58.709Z,44.80
2022-08-23T23:24:29.202Z,44.90
2022-08-23T23:26:57.624Z,45.70
2022-08-23T23:29:26.764Z,45.70
2022-08-23T23:31:55.265Z,46.00
2022-08-23T23:34:26.073Z,46.80
2022-08-23T23:36:56.212Z,46.90
2022-08-23T23:39:24.254Z,46.90
2022-08-23T23:41:52.209Z,46.60
2022-08-23T23:44:24.374Z,46.50
2022-08-23T23:46:58.929Z,46.60
2022-08-23T23:49:32.636Z,45.70
2022-08-23T23:52:01.729Z,46.80
2022-08-23T23:54:29.729Z,46.70
2022-08-23T23:56:57.688Z,46.60
2022-08-23T23:59:26.680Z,46.20
